Time;durP1;ratioP1;P1;durP2;ratioP2;P2;SDS_P1;SDS_P2;PMS_P1;PMS_P2;Temp;Humidity;BMP_temperature;BMP_pressure;BME280_temperature;BME280_humidity;BME280_pressure;Samples;Min_cycle;Max_cycle;Signal;HPM_P1;HPM_P2
2024/01/28 00:00:02;;;;;;;11.80;6.53;;;;;;;3.99;58.39;100477.59;6705234;29;20227;-78
2024/01/28 00:03:25;;;;;;;8.77;6.77;;;;;;;4.38;57.95;100466.38;6706298;29;20212;-79
2024/01/28 00:06:46;;;;;;;8.97;6.17;;;;;;;4.61;57.46;100453.78;6706506;29;20265;-79
2024/01/28 00:10:09;;;;;;;9.57;6.63;;;;;;;4.79;57.31;100470.94;6698802;29;20345;-78
2024/01/28 00:13:34;;;;;;;10.67;6.23;;;;;;;4.82;57.25;100465.31;6681180;29;20216;-78
2024/01/28 00:16:55;;;;;;;13.47;5.93;;;;;;;4.90;56.77;100469.06;6680793;29;20231;-80
2024/01/28 00:20:19;;;;;;;10.00;5.87;;;;;;;4.61;56.71;100451.09;6680826;29;20246;-79
2024/01/28 00:23:40;;;;;;;7.77;5.53;;;;;;;4.85;56.50;100465.91;6680657;29;20225;-79
2024/01/28 00:27:03;;;;;;;8.77;5.80;;;;;;;4.20;57.37;100467.00;6691529;29;20305;-79
2024/01/28 00:30:30;;;;;;;9.37;6.27;;;;;;;4.33;58.44;100467.69;6706227;29;20259;-79
2024/01/28 00:33:51;;;;;;;10.30;5.97;;;;;;;4.33;58.08;100471.22;6705952;29;20296;-79
2024/01/28 00:37:15;;;;;;;9.97;6.43;;;;;;;4.53;57.50;100473.09;6705523;29;20229;-79
2024/01/28 00:40:36;;;;;;;8.43;6.10;;;;;;;4.59;57.33;100463.72;6705637;29;20237;-78
2024/01/28 00:43:58;;;;;;;10.33;5.70;;;;;;;4.75;56.80;100451.66;6705528;29;20330;-79
2024/01/28 00:47:19;;;;;;;9.43;5.90;;;;;;;4.71;56.89;100462.72;6705631;29;20307;-79
2024/01/28 00:50:41;;;;;;;10.73;5.90;;;;;;;4.68;56.50;100452.28;6705535;29;20323;-79
2024/01/28 00:54:04;;;;;;;11.50;6.27;;;;;;;4.64;56.61;100427.66;6705446;29;20292;-80
2024/01/28 00:57:25;;;;;;;9.93;6.47;;;;;;;4.29;56.28;100440.41;6705427;29;20632;-79
2024/01/28 01:00:47;;;;;;;8.60;6.73;;;;;;;3.94;58.75;100433.56;6704795;29;20361;-79
2024/01/28 01:04:09;;;;;;;10.70;6.20;;;;;;;4.24;57.79;100431.94;6705509;29;20221;-79
2024/01/28 01:07:30;;;;;;;10.97;6.80;;;;;;;4.35;57.11;100426.56;6705147;29;20729;-80
2024/01/28 01:10:53;;;;;;;10.80;6.53;;;;;;;4.10;56.90;100410.88;6705135;29;20245;-79
2024/01/28 01:14:15;;;;;;;8.50;6.00;;;;;;;4.00;57.66;100377.88;6704863;29;20234;-79
2024/01/28 01:17:36;;;;;;;11.63;6.20;;;;;;;4.47;57.16;100417.53;6704121;29;20229;-78
2024/01/28 01:20:58;;;;;;;9.93;6.50;;;;;;;4.59;56.24;100407.63;6704768;29;20715;-79
2024/01/28 01:24:19;;;;;;;8.57;5.00;;;;;;;4.28;56.79;100420.03;6705153;29;20234;-79
2024/01/28 01:27:45;;;;;;;11.97;6.37;;;;;;;3.94;57.32;100414.88;6704585;29;20352;-79
2024/01/28 01:31:06;;;;;;;9.43;6.00;;;;;;;4.49;56.95;100409.41;6704203;29;20324;-81
2024/01/28 01:34:28;;;;;;;9.90;5.43;;;;;;;4.58;56.90;100397.94;6704969;29;20306;-79
2024/01/28 01:37:49;;;;;;;6.97;5.03;;;;;;;4.33;57.05;100393.81;6704287;29;20377;-80
2024/01/28 01:41:11;;;;;;;9.50;5.20;;;;;;;4.47;57.09;100387.28;6704355;29;20390;-80
2024/01/28 01:44:34;;;;;;;10.83;5.53;;;;;;;4.14;56.90;100390.09;6704656;29;20251;-79
2024/01/28 01:47:55;;;;;;;10.63;6.27;;;;;;;4.18;57.41;100395.06;6703195;29;20664;-80
2024/01/28 01:51:17;;;;;;;6.57;5.50;;;;;;;4.01;58.08;100400.94;6704246;29;20221;-80
2024/01/28 01:54:39;;;;;;;8.33;5.53;;;;;;;4.28;57.61;100411.16;6704171;29;20267;-79
2024/01/28 01:58:00;;;;;;;5.90;5.13;;;;;;;4.28;57.03;100405.81;6684868;29;20286;-80
2024/01/28 02:01:23;;;;;;;6.33;4.90;;;;;;;4.35;57.66;100407.88;6678517;29;20202;-79
2024/01/28 02:04:45;;;;;;;8.33;5.63;;;;;;;4.22;57.62;100403.66;6687947;29;20205;-78
2024/01/28 02:08:07;;;;;;;6.10;4.77;;;;;;;4.25;57.66;100382.88;6703765;29;20215;-79
2024/01/28 02:11:29;;;;;;;7.40;5.17;;;;;;;4.20;57.58;100401.09;6703799;29;20249;-79
2024/01/28 02:14:50;;;;;;;8.80;5.13;;;;;;;4.16;57.63;100398.81;6703988;29;20254;-79
2024/01/28 02:18:13;;;;;;;7.77;5.57;;;;;;;4.13;57.52;100391.09;6703544;29;20234;-79
2024/01/28 02:21:35;;;;;;;8.40;5.33;;;;;;;4.23;56.47;100392.88;6703334;29;20217;-80
2024/01/28 02:24:58;;;;;;;8.03;6.33;;;;;;;3.97;57.21;100393.31;6703488;29;20347;-79
2024/01/28 02:28:21;;;;;;;7.03;4.97;;;;;;;3.87;57.91;100390.53;6702784;29;20241;-78
2024/01/28 02:31:45;;;;;;;8.90;5.77;;;;;;;4.05;57.23;100385.50;6703784;29;20214;-79
2024/01/28 02:35:07;;;;;;;10.90;5.53;;;;;;;3.92;57.32;100383.00;6703933;29;20218;-79
2024/01/28 02:38:29;;;;;;;9.50;5.10;;;;;;;4.27;57.07;100383.63;6709230;29;20241;-79
2024/01/28 02:41:52;;;;;;;5.73;5.17;;;;;;;3.83;56.60;100357.06;6729304;29;20350;-80
2024/01/28 02:45:14;;;;;;;11.57;5.33;;;;;;;3.63;57.88;100371.19;6729274;29;20246;-79
2024/01/28 02:48:35;;;;;;;7.03;5.73;;;;;;;3.62;58.48;100376.63;6728792;29;20277;-79
2024/01/28 02:51:57;;;;;;;6.03;5.27;;;;;;;3.59;58.01;100382.22;6728878;29;20210;-79
2024/01/28 02:55:19;;;;;;;8.73;5.60;;;;;;;3.70;58.50;100379.53;6721995;29;20719;-79
2024/01/28 02:58:41;;;;;;;8.23;5.50;;;;;;;3.71;58.49;100381.25;6694389;29;20247;-79
2024/01/28 03:02:04;;;;;;;5.80;5.17;;;;;;;3.56;57.51;100358.47;6703398;29;20213;-79
2024/01/28 03:05:25;;;;;;;8.63;4.53;;;;;;;4.04;56.95;100368.66;6702805;29;20573;-79
2024/01/28 03:08:47;;;;;;;8.23;5.17;;;;;;;3.80;58.15;100361.81;6702549;29;20282;-79
2024/01/28 03:12:08;;;;;;;7.00;5.10;;;;;;;3.84;58.05;100372.09;6686101;29;20238;-79
2024/01/28 03:15:31;;;;;;;7.80;4.90;;;;;;;3.45;59.09;100371.81;6677413;29;20308;-79
2024/01/28 03:18:52;;;;;;;9.07;5.63;;;;;;;3.93;58.63;100371.38;6677352;29;20297;-79
2024/01/28 03:22:14;;;;;;;7.23;5.47;;;;;;;4.11;57.46;100352.97;6698994;29;20278;-79
2024/01/28 03:25:35;;;;;;;10.47;5.50;;;;;;;4.29;57.28;100344.31;6702929;29;20293;-79
2024/01/28 03:28:57;;;;;;;6.47;5.27;;;;;;;4.18;57.87;100349.69;6702227;29;20351;-79
2024/01/28 03:32:20;;;;;;;6.77;4.77;;;;;;;4.00;58.04;100345.00;6702979;29;20365;-79
2024/01/28 03:35:41;;;;;;;8.77;5.47;;;;;;;3.84;58.88;100339.25;6702679;29;20239;-78
2024/01/28 03:39:04;;;;;;;13.57;5.73;;;;;;;4.21;57.85;100320.06;6704069;29;20777;-78
2024/01/28 03:42:26;;;;;;;7.73;4.30;;;;;;;4.13;58.06;100311.00;6707256;29;20223;-79
2024/01/28 03:45:47;;;;;;;6.90;4.90;;;;;;;4.14;57.71;100318.88;6707021;29;20252;-79
2024/01/28 03:49:10;;;;;;;8.33;5.07;;;;;;;4.16;57.33;100340.09;6706835;29;20710;-78
2024/01/28 03:52:32;;;;;;;6.93;5.27;;;;;;;4.01;57.61;100328.03;6706910;29;20252;-78
2024/01/28 03:55:53;;;;;;;6.20;5.03;;;;;;;3.84;58.83;100340.09;6706660;29;20248;-78
2024/01/28 03:59:15;;;;;;;7.43;5.40;;;;;;;3.95;58.58;100342.72;6706003;29;20290;-79
2024/01/28 04:02:36;;;;;;;7.13;5.70;;;;;;;4.14;58.21;100337.56;6706675;29;20201;-79
2024/01/28 04:05:59;;;;;;;6.60;4.80;;;;;;;4.23;57.41;100349.28;6706432;29;20323;-78
2024/01/28 04:09:21;;;;;;;9.00;5.27;;;;;;;3.95;57.27;100339.22;6686296;29;20320;-79
2024/01/28 04:12:42;;;;;;;9.27;5.27;;;;;;;3.53;57.97;100332.88;6681405;29;20245;-79
2024/01/28 04:16:05;;;;;;;9.47;5.67;;;;;;;3.56;58.06;100343.31;6681038;29;20781;-78
2024/01/28 04:19:26;;;;;;;6.77;5.20;;;;;;;3.61;58.26;100340.28;6680872;29;20320;-79
2024/01/28 04:22:49;;;;;;;10.50;5.00;;;;;;;3.61;58.66;100341.09;6681471;29;20221;-78
2024/01/28 04:26:11;;;;;;;10.73;5.67;;;;;;;3.76;57.79;100323.88;6682106;29;20217;-79
2024/01/28 04:29:32;;;;;;;8.10;5.50;;;;;;;3.62;58.40;100342.81;6705100;29;20363;-78
2024/01/28 04:32:54;;;;;;;7.20;5.40;;;;;;;3.63;58.22;100333.84;6709241;29;20271;-79
2024/01/28 04:36:15;;;;;;;6.00;5.40;;;;;;;3.53;57.43;100316.91;6710651;29;20229;-79
2024/01/28 04:39:38;;;;;;;8.07;5.70;;;;;;;3.74;57.28;100347.16;6683138;29;20280;-80
2024/01/28 04:43:00;;;;;;;6.70;4.90;;;;;;;3.61;57.55;100334.94;6680927;29;20217;-79
2024/01/28 04:46:21;;;;;;;5.40;4.90;;;;;;;3.50;57.42;100345.63;6680350;29;20585;-78
2024/01/28 04:49:43;;;;;;;9.93;5.57;;;;;;;3.27;57.16;100304.81;6715083;29;20320;-78
2024/01/28 04:53:05;;;;;;;7.57;5.40;;;;;;;3.35;58.24;100346.84;6701356;29;20304;-78
2024/01/28 04:56:27;;;;;;;6.83;4.93;;;;;;;3.69;57.48;100338.69;6679964;29;20666;-78
2024/01/28 04:59:49;;;;;;;6.63;5.43;;;;;;;3.56;57.65;100327.31;6679926;29;20729;-78
2024/01/28 05:03:11;;;;;;;8.10;4.67;;;;;;;3.45;57.79;100319.34;6679977;29;20213;-78
2024/01/28 05:06:35;;;;;;;8.83;5.10;;;;;;;3.22;58.54;100349.66;6695907;29;20212;-80
2024/01/28 05:09:57;;;;;;;8.90;5.77;;;;;;;3.49;57.91;100346.59;6704884;29;20312;-79
2024/01/28 05:13:20;;;;;;;6.00;5.13;;;;;;;3.48;57.59;100355.56;6704951;29;20300;-78
2024/01/28 05:16:47;;;;;;;5.93;4.87;;;;;;;3.23;58.32;100356.66;6704959;29;20241;-78
2024/01/28 05:20:10;;;;;;;7.30;5.10;;;;;;;3.15;58.21;100348.44;6704371;29;20240;-78
2024/01/28 05:23:31;;;;;;;7.90;5.20;;;;;;;3.28;58.13;100354.50;6692219;29;20257;-79
2024/01/28 05:26:53;;;;;;;7.13;5.40;;;;;;;3.19;58.31;100357.88;6704400;29;20674;-79
2024/01/28 05:30:16;;;;;;;5.50;4.97;;;;;;;3.22;58.04;100344.31;6704766;29;20249;-79
2024/01/28 05:33:37;;;;;;;5.60;4.90;;;;;;;3.17;57.56;100335.84;6704072;29;20205;-79
2024/01/28 05:36:59;;;;;;;5.00;4.60;;;;;;;3.42;56.91;100348.91;6704078;29;20216;-80
2024/01/28 05:40:21;;;;;;;7.47;4.93;;;;;;;3.33;56.89;100336.31;6698391;29;20367;-79
2024/01/28 05:43:42;;;;;;;6.20;4.87;;;;;;;3.09;57.21;100324.94;6703219;29;20346;-79
2024/01/28 05:47:05;;;;;;;7.97;5.07;;;;;;;3.15;57.76;100315.59;6702623;29;20753;-79
2024/01/28 05:50:27;;;;;;;6.10;5.50;;;;;;;2.91;58.61;100336.19;6703354;29;20226;-78
2024/01/28 05:53:48;;;;;;;8.90;5.83;;;;;;;3.04;58.43;100344.91;6704509;29;20589;-79
2024/01/28 05:57:10;;;;;;;9.07;5.33;;;;;;;2.90;58.29;100358.47;6703208;29;20212;-79
2024/01/28 06:00:32;;;;;;;6.73;5.20;;;;;;;2.91;57.92;100355.69;6703381;29;20248;-79
2024/01/28 06:03:55;;;;;;;8.00;4.80;;;;;;;2.80;57.26;100310.41;6704008;29;20213;-78
2024/01/28 06:07:16;;;;;;;7.73;5.30;;;;;;;3.27;57.30;100347.47;6702923;29;20224;-79
2024/01/28 06:10:38;;;;;;;6.33;4.93;;;;;;;3.21;57.28;100347.97;6686160;29;20677;-79
2024/01/28 06:13:59;;;;;;;7.13;5.13;;;;;;;2.95;57.28;100359.81;6678523;29;20225;-79
2024/01/28 06:17:21;;;;;;;5.87;5.13;;;;;;;2.90;57.67;100363.81;6677860;29;20257;-79
2024/01/28 06:20:44;;;;;;;8.70;5.50;;;;;;;3.24;57.00;100353.03;6678413;29;20245;-79
2024/01/28 06:24:06;;;;;;;6.53;5.00;;;;;;;3.06;57.88;100354.47;6678016;29;20747;-79
2024/01/28 06:27:29;;;;;;;8.17;5.10;;;;;;;3.11;57.18;100357.63;6694710;29;20582;-78
2024/01/28 06:30:51;;;;;;;7.03;5.20;;;;;;;2.94;57.27;100323.47;6703691;29;20298;-78
2024/01/28 06:34:12;;;;;;;7.77;5.03;;;;;;;2.90;56.88;100329.16;6703459;29;20241;-78
2024/01/28 06:37:35;;;;;;;6.73;5.27;;;;;;;3.06;57.52;100349.16;6702764;29;20247;-78
2024/01/28 06:40:57;;;;;;;5.53;4.97;;;;;;;2.97;57.95;100351.69;6695921;29;20720;-78
2024/01/28 06:44:18;;;;;;;6.53;5.57;;;;;;;2.93;57.94;100347.56;6678619;29;20301;-79
2024/01/28 06:47:40;;;;;;;5.87;5.00;;;;;;;2.96;57.60;100342.84;6692792;29;20241;-78
2024/01/28 06:51:04;;;;;;;7.33;5.73;;;;;;;2.94;57.71;100360.78;6693867;29;20302;-79
2024/01/28 06:54:27;;;;;;;9.37;6.57;;;;;;;3.02;57.33;100369.00;6695547;29;20354;-78
2024/01/28 06:57:49;;;;;;;5.50;5.00;;;;;;;2.67;57.48;100356.72;6691745;29;20242;-79
2024/01/28 07:01:11;;;;;;;10.27;7.50;;;;;;;2.82;58.71;100363.53;6691145;29;20240;-79
2024/01/28 07:04:32;;;;;;;8.00;7.20;;;;;;;3.22;57.84;100346.13;6728590;29;20353;-79
2024/01/28 07:07:54;;;;;;;9.43;6.00;;;;;;;3.36;56.29;100356.56;6728309;29;20300;-80
2024/01/28 07:11:16;;;;;;;6.37;5.73;;;;;;;3.01;57.38;100350.50;6731149;29;20296;-80
2024/01/28 07:14:38;;;;;;;7.03;6.33;;;;;;;3.05;57.73;100358.13;6707503;29;20309;-78
2024/01/28 07:18:00;;;;;;;8.00;6.23;;;;;;;3.04;57.64;100342.25;6724775;29;20303;-78
2024/01/28 07:21:22;;;;;;;8.63;5.80;;;;;;;3.27;57.65;100367.94;6733575;29;20318;-79
2024/01/28 07:24:43;;;;;;;6.93;6.23;;;;;;;3.09;58.37;100372.03;6733305;29;20255;-79
2024/01/28 07:28:06;;;;;;;10.63;7.20;;;;;;;3.78;56.49;100377.94;6732749;29;20769;-79
2024/01/28 07:31:28;;;;;;;10.87;7.00;;;;;;;3.77;56.31;100370.09;6696558;29;20217;-78
2024/01/28 07:34:50;;;;;;;14.57;8.53;;;;;;;2.94;58.29;100374.09;6707828;29;20214;-80
2024/01/28 07:38:11;;;;;;;11.00;8.57;;;;;;;3.51;58.18;100339.31;6707356;29;20240;-79
2024/01/28 07:41:35;;;;;;;8.80;7.70;;;;;;;3.87;57.79;100358.53;6707398;29;20759;-78
2024/01/28 07:44:58;;;;;;;12.27;8.07;;;;;;;4.13;57.25;100361.72;6693932;29;20212;-78
2024/01/28 07:48:19;;;;;;;12.63;9.20;;;;;;;4.26;57.54;100354.38;6701579;29;20355;-79
2024/01/28 07:51:41;;;;;;;12.83;9.57;;;;;;;4.47;58.14;100347.22;6707336;29;20410;-79
2024/01/28 07:55:02;;;;;;;12.73;9.23;;;;;;;4.52;59.00;100355.72;6707313;29;20365;-79
2024/01/28 07:58:24;;;;;;;12.03;9.17;;;;;;;4.72;58.99;100339.69;6706527;29;20285;-79
2024/01/28 08:01:47;;;;;;;15.30;9.93;;;;;;;5.05;58.61;100342.13;6707018;29;20274;-79
2024/01/28 08:05:09;;;;;;;14.77;10.13;;;;;;;5.43;58.16;100341.47;6706639;29;20231;-79
2024/01/28 08:08:30;;;;;;;14.03;10.43;;;;;;;5.70;58.04;100344.34;6706726;29;20236;-79
2024/01/28 08:11:52;;;;;;;20.30;11.97;;;;;;;5.95;57.59;100333.19;6715465;29;20223;-78
2024/01/28 08:15:15;;;;;;;14.50;10.63;;;;;;;6.28;56.91;100328.25;6706854;29;20733;-78
2024/01/28 08:18:38;;;;;;;15.07;10.67;;;;;;;6.60;56.62;100330.66;6705504;29;20274;-79
2024/01/28 08:22:00;;;;;;;15.77;11.57;;;;;;;6.36;56.41;100328.38;6680967;29;20225;-79
2024/01/28 08:25:23;;;;;;;16.93;11.00;;;;;;;6.67;56.08;100307.63;6680400;29;20355;-79
2024/01/28 08:28:44;;;;;;;19.63;11.50;;;;;;;6.96;55.55;100325.31;6680494;29;20233;-78
2024/01/28 08:32:07;;;;;;;14.37;10.10;;;;;;;6.48;56.16;100321.06;6700941;29;20271;-78
2024/01/28 08:35:31;;;;;;;14.57;10.90;;;;;;;6.51;56.57;100345.75;6706519;29;20228;-77
2024/01/28 08:38:53;;;;;;;15.87;10.97;;;;;;;6.74;56.10;100335.56;6706565;29;20245;-78
2024/01/28 08:42:15;;;;;;;14.50;10.33;;;;;;;6.15;57.54;100317.00;6706217;29;20636;-79
2024/01/28 08:45:37;;;;;;;15.50;10.23;;;;;;;8.23;53.27;100330.63;6698898;29;20202;-79
2024/01/28 08:48:58;;;;;;;13.87;9.63;;;;;;;10.05;47.09;100309.56;6680573;29;20713;-78
2024/01/28 08:52:21;;;;;;;14.00;10.03;;;;;;;10.08;45.95;100304.69;6680606;29;20251;-78
2024/01/28 08:55:43;;;;;;;12.37;9.00;;;;;;;12.42;41.78;100317.41;6680157;29;20210;-79
2024/01/28 08:59:05;;;;;;;9.63;8.00;;;;;;;13.41;39.08;100308.91;6680192;29;20266;-78
2024/01/28 09:02:26;;;;;;;13.07;7.90;;;;;;;14.19;37.32;100301.78;6680087;29;20682;-78
2024/01/28 09:05:48;;;;;;;9.07;8.10;;;;;;;15.00;36.18;100307.59;6679617;29;20249;-78
2024/01/28 09:09:11;;;;;;;14.27;8.90;;;;;;;14.11;37.41;100309.16;6679696;29;20234;-78
2024/01/28 09:12:33;;;;;;;9.43;7.57;;;;;;;13.85;37.10;100306.97;6680075;29;20304;-78
2024/01/28 09:15:54;;;;;;;9.13;7.43;;;;;;;12.95;38.99;100301.94;6683795;29;20202;-78
2024/01/28 09:19:16;;;;;;;10.73;8.00;;;;;;;12.23;40.34;100307.88;6692249;29;20280;-78
2024/01/28 09:22:38;;;;;;;11.30;7.90;;;;;;;11.52;42.14;100312.63;6708777;29;20380;-78
2024/01/28 09:26:01;;;;;;;8.03;6.27;;;;;;;11.38;42.21;100307.97;6705564;29;20224;-79
2024/01/28 09:29:23;;;;;;;11.90;7.93;;;;;;;10.33;43.74;100319.88;6707580;29;20714;-78
2024/01/28 09:32:47;;;;;;;11.00;7.63;;;;;;;11.07;43.22;100317.81;6698470;29;20237;-79
2024/01/28 09:36:09;;;;;;;10.07;8.07;;;;;;;11.44;42.59;100291.06;6703241;29;20217;-80
2024/01/28 09:39:31;;;;;;;10.37;7.00;;;;;;;11.51;41.78;100300.13;6704203;29;20324;-79
2024/01/28 09:43:05;;;;;;;8.70;7.53;;;;;;;11.39;41.55;100300.72;6702921;29;20425;-79
2024/01/28 09:46:29;;;;;;;8.43;6.27;;;;;;;11.41;41.37;100287.88;6704542;29;20650;-79
2024/01/28 09:49:51;;;;;;;9.23;6.50;;;;;;;11.81;40.81;100298.53;6703274;29;20225;-79
2024/01/28 09:53:13;;;;;;;7.57;6.27;;;;;;;11.68;41.08;100303.66;6703345;29;20583;-80
2024/01/28 09:56:34;;;;;;;7.93;6.60;;;;;;;11.88;40.25;100288.69;6701412;29;20213;-79
2024/01/28 09:59:57;;;;;;;9.40;6.47;;;;;;;12.17;40.62;100310.47;6703860;29;20300;-79
2024/01/28 10:03:20;;;;;;;6.87;6.13;;;;;;;12.84;39.98;100304.19;6703521;29;20501;-80
2024/01/28 10:06:42;;;;;;;8.03;6.17;;;;;;;13.25;39.36;100291.97;6702337;29;20276;-79
2024/01/28 10:10:05;;;;;;;7.60;6.53;;;;;;;13.89;37.77;100288.47;6695392;29;20287;-80
2024/01/28 10:13:27;;;;;;;7.10;6.40;;;;;;;13.40;39.54;100247.59;6703668;29;20302;-80
2024/01/28 10:16:50;;;;;;;7.13;6.17;;;;;;;13.82;38.99;100282.13;6703126;29;20246;-79
2024/01/28 10:20:12;;;;;;;8.30;6.83;;;;;;;13.41;39.76;100276.38;6703134;29;20246;-80
2024/01/28 10:23:36;;;;;;;11.93;10.53;;;;;;;13.66;39.71;100279.59;6701509;29;20371;-79
2024/01/28 10:26:58;;;;;;;8.90;7.00;;;;;;;13.64;39.84;100254.56;6685416;29;20566;-79
2024/01/28 10:30:19;;;;;;;9.27;6.67;;;;;;;14.21;38.68;100264.44;6699634;29;20245;-79
2024/01/28 10:33:42;;;;;;;8.43;7.63;;;;;;;14.25;38.18;100260.31;6708762;29;20217;-79
2024/01/28 10:37:05;;;;;;;9.27;7.77;;;;;;;13.64;38.85;100254.56;6678360;29;20295;-79
2024/01/28 10:40:32;;;;;;;7.80;6.93;;;;;;;12.91;40.28;100265.38;6700619;29;20336;-79
2024/01/28 10:43:57;;;;;;;8.47;7.17;;;;;;;14.06;38.67;100243.81;6679155;29;20214;-78
2024/01/28 10:47:19;;;;;;;7.93;6.40;;;;;;;14.61;38.47;100252.94;6680625;29;20695;-79
2024/01/28 10:50:43;;;;;;;9.10;6.00;;;;;;;14.54;37.63;100256.63;6712709;29;20263;-78
2024/01/28 10:54:07;;;;;;;5.80;5.30;;;;;;;14.83;36.97;100259.16;6709483;29;20616;-78
2024/01/28 10:57:29;;;;;;;7.00;5.67;;;;;;;15.12;36.62;100239.94;6707543;29;20229;-78
2024/01/28 11:00:50;;;;;;;8.50;5.73;;;;;;;15.63;35.15;100241.31;6708090;29;20266;-78
2024/01/28 11:04:12;;;;;;;3.50;3.10;;;;;;;15.22;33.62;100238.53;6707830;29;20250;-78
2024/01/28 11:07:35;;;;;;;5.30;4.53;;;;;;;16.12;34.64;100231.88;6706601;29;20218;-78
2024/01/28 11:10:57;;;;;;;4.67;4.07;;;;;;;16.33;33.90;100219.97;6707509;29;20637;-78
2024/01/28 11:14:19;;;;;;;4.10;3.43;;;;;;;16.92;31.88;100220.84;6707720;29;20303;-78
2024/01/28 11:17:40;;;;;;;3.50;3.20;;;;;;;17.08;31.36;100212.19;6706990;29;20227;-79
2024/01/28 11:21:10;;;;;;;5.60;3.50;;;;;;;17.30;30.97;100210.88;6707960;29;20297;-79
2024/01/28 11:24:47;;;;;;;3.27;3.00;;;;;;;17.29;29.60;100198.31;6708035;29;20194;-79
2024/01/28 11:28:09;;;;;;;3.10;2.80;;;;;;;17.56;30.39;100194.44;6681726;29;20932;-78
2024/01/28 11:31:32;;;;;;;3.43;3.13;;;;;;;17.66;30.14;100192.13;6682008;29;20312;-78
2024/01/28 11:34:54;;;;;;;5.13;3.83;;;;;;;17.21;31.36;100195.84;6692445;29;20213;-78
2024/01/28 11:38:20;;;;;;;4.07;3.67;;;;;;;17.34;31.26;100198.50;6692992;29;20320;-78
2024/01/28 11:41:44;;;;;;;4.03;3.43;;;;;;;17.26;31.36;100188.66;6698970;29;20229;-78
2024/01/28 11:45:07;;;;;;;3.93;3.53;;;;;;;16.56;31.38;100174.97;6707248;29;20250;-79
2024/01/28 11:48:29;;;;;;;3.50;3.20;;;;;;;17.51;30.38;100172.47;6706172;29;20780;-78
2024/01/28 11:51:50;;;;;;;4.20;3.60;;;;;;;17.05;31.23;100175.31;6706479;29;20253;-78
2024/01/28 11:55:13;;;;;;;4.67;3.60;;;;;;;16.99;30.55;100169.88;6706412;29;20298;-79
2024/01/28 11:58:36;;;;;;;6.87;4.93;;;;;;;17.14;30.94;100176.75;6705253;29;20267;-78
2024/01/28 12:01:57;;;;;;;5.33;4.83;;;;;;;17.02;31.89;100173.03;6709973;29;20674;-78
2024/01/28 12:05:19;;;;;;;5.27;3.50;;;;;;;16.79;30.46;100169.06;6706676;29;20298;-78
2024/01/28 12:08:41;;;;;;;3.83;3.33;;;;;;;16.36;31.37;100159.66;6705866;29;20247;-79
2024/01/28 12:12:03;;;;;;;3.73;3.30;;;;;;;17.57;30.66;100150.59;6706209;29;20313;-79
2024/01/28 12:15:26;;;;;;;3.90;3.50;;;;;;;17.46;30.09;100153.19;6707713;29;20742;-79
2024/01/28 12:18:47;;;;;;;3.20;2.90;;;;;;;17.62;29.32;100145.34;6705774;29;20244;-79
2024/01/28 12:22:11;;;;;;;3.20;2.83;;;;;;;18.23;29.61;100130.03;6705664;29;20315;-78
2024/01/28 12:25:35;;;;;;;3.07;2.77;;;;;;;18.29;29.24;100131.84;6708192;29;20216;-79
2024/01/28 12:28:57;;;;;;;4.67;2.73;;;;;;;18.55;28.93;100122.63;6706089;29;20260;-78
2024/01/28 12:32:20;;;;;;;2.90;2.50;;;;;;;18.77;28.27;100124.75;6705876;29;20349;-78
2024/01/28 12:35:41;;;;;;;3.37;2.77;;;;;;;18.93;27.89;100117.84;6705887;29;20309;-78
2024/01/28 12:39:03;;;;;;;3.23;2.70;;;;;;;18.74;28.08;100118.91;6704452;29;20455;-78
2024/01/28 12:42:25;;;;;;;2.70;2.50;;;;;;;19.17;27.08;100103.25;6705805;29;20241;-80
2024/01/28 12:45:46;;;;;;;4.67;2.80;;;;;;;18.98;27.46;100109.81;6704671;29;20292;-78
2024/01/28 12:49:09;;;;;;;3.10;2.80;;;;;;;18.89;27.75;100106.53;6703911;29;20316;-80
2024/01/28 12:52:31;;;;;;;2.67;2.47;;;;;;;18.94;27.48;100089.44;6704192;29;20268;-80
2024/01/28 12:55:52;;;;;;;3.10;2.77;;;;;;;19.22;27.08;100085.13;6713181;29;20343;-80
2024/01/28 12:59:14;;;;;;;2.73;2.30;;;;;;;19.16;27.14;100080.53;6678040;29;20324;-79
2024/01/28 13:02:35;;;;;;;2.90;2.60;;;;;;;19.28;27.36;100062.31;6677896;29;20745;-78
2024/01/28 13:05:58;;;;;;;2.70;2.50;;;;;;;19.62;26.38;100060.78;6679671;29;20707;-78
2024/01/28 13:09:20;;;;;;;3.10;2.30;;;;;;;18.88;27.73;100061.09;6679412;29;20328;-78
2024/01/28 13:12:43;;;;;;;4.00;2.70;;;;;;;19.54;26.41;100051.03;6688810;29;20758;-79
2024/01/28 13:16:05;;;;;;;7.47;2.50;;;;;;;18.96;27.95;100057.25;6681558;29;20221;-78
2024/01/28 13:19:27;;;;;;;2.20;2.10;;;;;;;19.01;26.57;100049.19;6679005;29;20391;-78
2024/01/28 13:22:50;;;;;;;2.90;2.27;;;;;;;19.28;27.50;100059.59;6685937;29;20267;-78
2024/01/28 13:26:11;;;;;;;2.60;2.40;;;;;;;19.15;26.93;100040.59;6704572;29;20331;-78
2024/01/28 13:29:35;;;;;;;2.43;2.23;;;;;;;19.62;25.58;100039.75;6704099;29;20327;-78
2024/01/28 13:32:57;;;;;;;3.03;2.20;;;;;;;19.65;25.52;100035.72;6704629;29;20217;-78
2024/01/28 13:36:18;;;;;;;2.97;2.67;;;;;;;19.64;25.78;100045.00;6703829;29;20220;-79
2024/01/28 13:39:41;;;;;;;2.50;2.30;;;;;;;20.10;25.25;100035.00;6703357;29;20225;-77
2024/01/28 13:43:03;;;;;;;2.10;1.97;;;;;;;19.95;25.35;100025.56;6704087;29;20349;-77
2024/01/28 13:46:25;;;;;;;3.40;2.53;;;;;;;19.88;26.39;100031.13;6703223;29;20277;-78
2024/01/28 13:49:46;;;;;;;2.43;2.20;;;;;;;20.17;25.26;100032.97;6704043;29;20319;-77
2024/01/28 13:53:08;;;;;;;4.67;2.77;;;;;;;19.76;26.53;100043.13;6704120;29;20768;-78
2024/01/28 13:56:31;;;;;;;2.20;2.00;;;;;;;19.69;26.39;100037.75;6687336;29;20218;-77
2024/01/28 13:59:53;;;;;;;2.70;2.50;;;;;;;19.28;26.53;100026.78;6678274;29;20234;-79
2024/01/28 14:03:14;;;;;;;2.30;2.10;;;;;;;18.77;27.07;100036.44;6691297;29;20261;-78
2024/01/28 14:06:36;;;;;;;2.70;2.17;;;;;;;19.08;27.17;100034.38;6704489;29;20667;-78
2024/01/28 14:09:57;;;;;;;2.57;2.37;;;;;;;18.93;27.29;100024.91;6703025;29;20290;-78
2024/01/28 14:13:20;;;;;;;2.40;2.20;;;;;;;19.03;27.81;100044.31;6703231;29;20300;-78
2024/01/28 14:16:42;;;;;;;2.40;2.20;;;;;;;18.99;27.43;100043.13;6704456;29;20564;-78
2024/01/28 14:20:05;;;;;;;3.10;2.50;;;;;;;19.10;28.19;100036.91;6703330;29;20331;-78
2024/01/28 14:23:26;;;;;;;2.87;2.60;;;;;;;19.20;28.09;100040.75;6702369;29;20696;-78
2024/01/28 14:26:48;;;;;;;2.70;2.50;;;;;;;18.86;28.84;100037.84;6703005;29;20255;-80
2024/01/28 14:30:11;;;;;;;2.80;2.60;;;;;;;19.09;28.86;100035.19;6703272;29;20733;-79
2024/01/28 14:33:33;;;;;;;6.13;3.57;;;;;;;18.99;28.03;100032.19;6703353;29;20312;-79
2024/01/28 14:36:54;;;;;;;3.00;2.80;;;;;;;18.99;28.27;100029.47;6702758;29;20284;-79
2024/01/28 14:40:16;;;;;;;3.07;2.77;;;;;;;19.03;28.45;100036.97;6703614;29;20272;-79
2024/01/28 14:43:37;;;;;;;3.17;2.80;;;;;;;18.71;29.55;100027.28;6703521;29;20296;-78
2024/01/28 14:47:00;;;;;;;2.90;2.70;;;;;;;18.66;30.11;100024.41;6702043;29;20307;-78
2024/01/28 14:50:22;;;;;;;2.70;2.50;;;;;;;18.46;30.67;100029.22;6697963;29;20245;-78
2024/01/28 14:53:43;;;;;;;2.27;2.07;;;;;;;18.14;29.94;100032.25;6700177;29;20269;-78
2024/01/28 14:57:07;;;;;;;2.67;2.20;;;;;;;17.90;30.74;100019.44;6702333;29;20273;-78
2024/01/28 15:00:28;;;;;;;5.30;2.57;;;;;;;17.54;30.94;100028.34;6702857;29;20275;-78
2024/01/28 15:03:51;;;;;;;2.97;2.70;;;;;;;16.95;30.75;100037.84;6702641;29;20259;-78
2024/01/28 15:07:13;;;;;;;2.87;2.50;;;;;;;16.93;31.91;100043.50;6702187;29;20309;-78
2024/01/28 15:10:35;;;;;;;2.77;2.53;;;;;;;16.63;32.34;100045.06;6703311;29;20284;-79
2024/01/28 15:13:56;;;;;;;3.63;3.33;;;;;;;15.88;33.13;100049.34;6702584;29;20216;-78
2024/01/28 15:17:18;;;;;;;3.40;3.10;;;;;;;15.62;33.24;100044.69;6703647;29;20294;-78
2024/01/28 15:20:40;;;;;;;5.23;3.93;;;;;;;15.85;33.38;100045.13;6702357;29;20331;-79
2024/01/28 15:24:03;;;;;;;4.27;3.87;;;;;;;15.29;34.67;100051.91;6701722;29;20369;-78
2024/01/28 15:27:24;;;;;;;8.47;5.20;;;;;;;14.99;35.45;100042.41;6701804;29;20210;-78
2024/01/28 15:30:46;;;;;;;7.20;5.13;;;;;;;14.92;36.00;100048.88;6702806;29;20279;-78
2024/01/28 15:34:07;;;;;;;4.83;4.30;;;;;;;14.19;37.47;100043.22;6703818;29;20214;-78
2024/01/28 15:37:30;;;;;;;4.40;3.80;;;;;;;14.23;37.58;100044.53;6706691;29;20336;-78
2024/01/28 15:40:52;;;;;;;3.63;3.33;;;;;;;13.48;39.46;100038.00;6706035;29;20268;-79